Terminal Aerodrome Forecast
Issued by NWS Upton, NY

Home | Current Version | Previous Version | Text Only | Print | Product List | Glossary On
Versions: 1 2 3 4 5 6 7 8 9 10 11 12 13 14 15 16 17 18 19 20 21 22 23 24 25 26 27 28 29 30 31 32 33
139
FTUS41 KOKX 291330 AAA
TAFEWR
TAF AMD
KEWR 291330Z 2914/3018 08008KT P6SM OVC060
     FM291700 10007KT P6SM OVC060
     FM292200 10007KT P6SM -RA OVC050
     FM300300 04007KT P6SM -RA SCT025 OVC040
     FM300500 02006KT P6SM BKN060
     FM301300 05006KT P6SM SCT060
     FM301600 10008KT P6SM SCT060=

USA.gov is the U.S. government's official web portal to all federal, state and local government web resources and services.